Sunday, January 21, 2018, 8:41 PM GMT
Back to Local

CWVU, Brier Island, N. S.

Location: , , Canada Lat: 44.286
Local Time: 8:41 PM GMT (20:41 GMT) Lon: -66.347
Time Zone: GMT Elev: 52 ft

Show me the last for .
Show Coded

Time T Td Feel RH Dir Speed Gust Alt SLP Vis Weather Sky Remarks
2018-01-21 20:00 36 23 28 58 290° 10 - - 30.12 0 None
2018-01-21 19:00 35 21 25 57 290° 15 - - 30.10 0 Peak wind: 20 mph (18 kts) from 300° at 01 min
2018-01-21 18:00 34 21 22 58 300° 17 23 - 30.08 0 Peak wind: 24 mph (21 kts) from 300° at 37 min
2018-01-21 17:00 35 20 24 54 300° 18 - - 30.08 0 Peak wind: 24 mph (21 kts) from 300° at 35 min
2018-01-21 16:00 33 20 22 59 300° 17 - - 30.09 0 Peak wind: 24 mph (21 kts) from 310° at 33 min
2018-01-21 15:00 35 25 25 66 320° 17 - - 30.10 0 Peak wind: 23 mph (20 kts) from 310° at 32 min
2018-01-21 14:00 36 25 25 64 290° 21 - - 30.07 0 Peak wind: 28 mph (25 kts) from 300° at 38 min
2018-01-21 13:00 36 25 25 63 310° 21 - - 30.04 0 Peak wind: 29 mph (26 kts) from 310° at 25 min
2018-01-21 12:00 37 26 25 64 310° 24 - - 30.03 0 Peak wind: 28 mph (25 kts) from 310° at 57 min
2018-01-21 11:00 37 27 25 65 300° 21 26 - 29.99 0 Peak wind: 27 mph (24 kts) from 310° at 16 min
2018-01-21 10:00 38 27 27 63 310° 23 - - 29.95 0 Peak wind: 34 mph (30 kts) from 290° at 26 min
2018-01-21 09:00 39 28 27 64 290° 29 - - 29.92 0 Peak wind: 33 mph (29 kts) from 290° at 07 min
2018-01-21 08:00 40 29 27 65 290° 29 35 - 29.90 0 Peak wind: 40 mph (35 kts) from 290° at 00 min
2018-01-21 07:00 41 29 28 62 280° 36 43 - 29.86 0 Peak wind: 43 mph (38 kts) from 280° at 44 min
2018-01-21 06:00 40 29 26 65 280° 36 46 - 29.83 0 Peak wind: 46 mph (40 kts) from 290° at 53 min
2018-01-21 05:00 42 33 31 70 280° 29 35 - 29.80 0 Peak wind: 39 mph (34 kts) from 270° at 44 min
2018-01-21 04:00 43 31 31 63 270° 30 37 - 29.78 0 Peak wind: 37 mph (33 kts) from 270° at 32 min
2018-01-21 03:00 43 33 31 68 270° 32 39 - 29.77 0 Peak wind: 39 mph (34 kts) from 270° at 57 min
2018-01-21 02:00 43 34 32 69 260° 30 37 - 29.75 0 Peak wind: 37 mph (33 kts) from 260° at 30 min
2018-01-21 01:00 43 33 31 67 260° 31 38 - 29.74 0 Peak wind: 39 mph (34 kts) from 260° at 47 min
2018-01-21 00:00 42 34 31 72 260° 28 37 - 29.70 0 Peak wind: 37 mph (33 kts) from 260° at 45 min
2018-01-20 23:00 42 35 32 77 260° 24 - - 29.67 0 Peak wind: 28 mph (25 kts) from 260° at 52 min
2018-01-20 22:00 41 34 30 77 270° 22 28 - 29.65 0 Peak wind: 31 mph (27 kts) from 270° at 32 min
2018-01-20 21:00 41 34 30 74 260° 23 29 - 29.62 0 Peak wind: 29 mph (26 kts) from 250° at 49 min

Support USWX by starting your Amazon purchase here.